Time;durP1;ratioP1;P1;durP2;ratioP2;P2;SDS_P1;SDS_P2;PMS_P1;PMS_P2;Temp;Humidity;BMP_temperature;BMP_pressure;BME280_temperature;BME280_humidity;BME280_pressure;Samples;Min_cycle;Max_cycle;Signal;HPM_P1;HPM_P2
2021/08/16 00:00:57;;;;;;;;;;;;;29.70;100818.00;;;;2065209;28;1945;-54
2021/08/16 00:01:57;;;;;;;;;;;;;29.70;100821.00;;;;2065335;28;1445;-53
2021/08/16 00:02:57;;;;;;;;;;;;;29.70;100811.00;;;;2071553;28;1621;-55
2021/08/16 00:03:57;;;;;;;;;;;;;29.70;100808.00;;;;2073246;28;1497;-55
2021/08/16 00:04:58;;;;;;;;;;;;;29.70;100815.00;;;;2073543;28;1509;-55
2021/08/16 00:05:59;;;;;;;;;;;;;29.70;100812.00;;;;2073619;28;1574;-55
2021/08/16 00:06:59;;;;;;;;;;;;;29.60;100810.00;;;;2065319;28;1887;-54
2021/08/16 00:07:59;;;;;;;;;;;;;29.60;100809.00;;;;2065500;28;1825;-53
2021/08/16 00:08:59;;;;;;;;;;;;;29.60;100807.00;;;;2073272;28;1804;-54
2021/08/16 00:09:59;;;;;;;;;;;;;29.60;100809.00;;;;2064854;28;1642;-56
2021/08/16 00:11:03;;;;;;;;;;;;;29.60;100808.00;;;;2064170;28;2217;-55
2021/08/16 00:12:03;;;;;;;;;;;;;29.60;100810.00;;;;2074062;28;1552;-53
2021/08/16 00:13:03;;;;;;;;;;;;;29.60;100806.00;;;;2073477;28;1629;-54
2021/08/16 00:14:04;;;;;;;;;;;;;29.60;100799.00;;;;2073877;28;1638;-55
2021/08/16 00:15:04;;;;;;;;;;;;;29.60;100801.00;;;;2074180;28;1522;-55
2021/08/16 00:16:04;;;;;;;;;;;;;29.60;100807.00;;;;2073187;28;1954;-53
2021/08/16 00:17:06;;;;;;;;;;;;;29.60;100807.00;;;;2073101;28;1475;-54
2021/08/16 00:18:06;;;;;;;;;;;;;29.60;100789.00;;;;2073982;28;1563;-55
2021/08/16 00:19:06;;;;;;;;;;;;;29.60;100802.00;;;;2074141;28;1550;-55
2021/08/16 00:20:07;;;;;;;;;;;;;29.60;100797.00;;;;2073758;28;1721;-54
2021/08/16 00:21:07;;;;;;;;;;;;;29.60;100795.00;;;;2074068;28;1541;-54
2021/08/16 00:22:07;;;;;;;;;;;;;29.60;100794.00;;;;2073708;28;1672;-54
2021/08/16 00:23:08;;;;;;;;;;;;;29.60;100796.00;;;;2073121;28;1544;-56
2021/08/16 00:24:08;;;;;;;;;;;;;29.50;100785.00;;;;2073857;28;1536;-55
2021/08/16 00:25:08;;;;;;;;;;;;;29.60;100784.00;;;;2065407;28;1463;-55
2021/08/16 00:26:08;;;;;;;;;;;;;29.50;100789.00;;;;2065076;28;1597;-55
2021/08/16 00:27:08;;;;;;;;;;;;;29.50;100787.00;;;;2072844;28;1399;-54
2021/08/16 00:28:09;;;;;;;;;;;;;29.50;100785.00;;;;2064902;28;1963;-55
2021/08/16 00:29:09;;;;;;;;;;;;;29.50;100780.00;;;;2065150;28;1460;-55
2021/08/16 00:30:09;;;;;;;;;;;;;29.50;100775.00;;;;2072417;28;1431;-54
2021/08/16 00:31:09;;;;;;;;;;;;;29.50;100773.00;;;;2065298;28;1531;-53
2021/08/16 00:32:10;;;;;;;;;;;;;29.50;100776.00;;;;2057067;28;1433;-53
2021/08/16 00:33:10;;;;;;;;;;;;;29.50;100765.00;;;;2054212;28;1296;-54
2021/08/16 00:34:10;;;;;;;;;;;;;29.50;100770.00;;;;2063723;28;1092;-54
2021/08/16 00:35:10;;;;;;;;;;;;;29.50;100765.00;;;;2074167;28;1530;-52
2021/08/16 00:36:10;;;;;;;;;;;;;29.50;100768.00;;;;2073883;28;1959;-55
2021/08/16 00:37:11;;;;;;;;;;;;;29.50;100761.00;;;;2074083;28;1270;-54
2021/08/16 00:38:11;;;;;;;;;;;;;29.50;100761.00;;;;2073979;28;1270;-55
2021/08/16 00:39:11;;;;;;;;;;;;;29.50;100763.00;;;;2073679;28;1548;-54
2021/08/16 00:40:12;;;;;;;;;;;;;29.40;100756.00;;;;2073738;28;1285;-54
2021/08/16 00:41:12;;;;;;;;;;;;;29.50;100756.00;;;;2073953;28;1293;-52
2021/08/16 00:42:12;;;;;;;;;;;;;29.40;100749.00;;;;2065341;28;1414;-53
2021/08/16 00:43:12;;;;;;;;;;;;;29.50;100755.00;;;;2056683;28;1709;-56
2021/08/16 00:44:13;;;;;;;;;;;;;29.40;100751.00;;;;2064516;28;1979;-55
2021/08/16 00:45:13;;;;;;;;;;;;;29.40;100751.00;;;;2062135;28;2189;-54
2021/08/16 00:46:13;;;;;;;;;;;;;29.40;100751.00;;;;2057162;28;1686;-54
2021/08/16 00:47:14;;;;;;;;;;;;;29.40;100751.00;;;;2057091;28;1642;-54
2021/08/16 00:48:14;;;;;;;;;;;;;29.40;100745.00;;;;2065186;28;1612;-55
2021/08/16 00:49:14;;;;;;;;;;;;;29.40;100740.00;;;;2073748;28;1722;-55
2021/08/16 00:50:14;;;;;;;;;;;;;29.40;100747.00;;;;2073667;28;1533;-54
2021/08/16 00:51:14;;;;;;;;;;;;;29.40;100737.00;;;;2073407;28;1923;-53
2021/08/16 00:52:15;;;;;;;;;;;;;29.40;100748.00;;;;2065043;28;1542;-53
2021/08/16 00:53:15;;;;;;;;;;;;;29.40;100741.00;;;;2056492;28;1559;-55
2021/08/16 00:54:15;;;;;;;;;;;;;29.40;100736.00;;;;2065110;28;1650;-55
2021/08/16 00:55:15;;;;;;;;;;;;;29.40;100731.00;;;;2065023;28;1568;-54
2021/08/16 00:56:16;;;;;;;;;;;;;29.40;100745.00;;;;2065069;28;1919;-56
2021/08/16 00:57:16;;;;;;;;;;;;;29.40;100739.00;;;;2073492;28;1628;-54
2021/08/16 00:58:17;;;;;;;;;;;;;29.40;100734.00;;;;2073165;28;1402;-55
2021/08/16 00:59:17;;;;;;;;;;;;;29.40;100739.00;;;;2073071;28;1691;-56
2021/08/16 01:00:18;;;;;;;;;;;;;29.40;100739.00;;;;2062283;28;2336;-54
2021/08/16 01:01:18;;;;;;;;;;;;;29.30;100739.00;;;;2064860;28;2015;-54
2021/08/16 01:02:18;;;;;;;;;;;;;29.30;100734.00;;;;2073555;28;1681;-55
2021/08/16 01:03:18;;;;;;;;;;;;;29.30;100740.00;;;;2072887;28;1447;-53
2021/08/16 01:04:19;;;;;;;;;;;;;29.30;100741.00;;;;2073762;28;1719;-53
2021/08/16 01:05:19;;;;;;;;;;;;;29.30;100737.00;;;;2073684;28;1801;-55
2021/08/16 01:06:19;;;;;;;;;;;;;29.30;100729.00;;;;2065138;28;1881;-54
2021/08/16 01:07:19;;;;;;;;;;;;;29.30;100733.00;;;;2064546;28;1506;-55
2021/08/16 01:08:20;;;;;;;;;;;;;29.30;100730.00;;;;2068982;28;1466;-54
2021/08/16 01:09:20;;;;;;;;;;;;;29.30;100730.00;;;;2064702;28;1656;-56
2021/08/16 01:10:21;;;;;;;;;;;;;29.30;100726.00;;;;2056900;28;959;-55
2021/08/16 01:11:21;;;;;;;;;;;;;29.30;100722.00;;;;2050195;28;1421;-55
2021/08/16 01:12:22;;;;;;;;;;;;;29.30;100721.00;;;;2064951;28;1499;-56
2021/08/16 01:13:22;;;;;;;;;;;;;29.30;100723.00;;;;2073278;28;1486;-54
2021/08/16 01:14:22;;;;;;;;;;;;;29.30;100723.00;;;;2072891;28;1397;-54
2021/08/16 01:15:23;;;;;;;;;;;;;29.30;100715.00;;;;2073866;28;1428;-55
2021/08/16 01:16:24;;;;;;;;;;;;;29.30;100720.00;;;;2073139;28;1906;-55
2021/08/16 01:17:24;;;;;;;;;;;;;29.30;100719.00;;;;2073778;28;1483;-55
2021/08/16 01:18:25;;;;;;;;;;;;;29.30;100722.00;;;;2073547;28;1518;-53
2021/08/16 01:19:25;;;;;;;;;;;;;29.30;100726.00;;;;2073684;28;1750;-54
2021/08/16 01:20:25;;;;;;;;;;;;;29.20;100723.00;;;;2073092;28;1898;-55
2021/08/16 01:21:25;;;;;;;;;;;;;29.20;100710.00;;;;2073724;28;1907;-53
2021/08/16 01:22:25;;;;;;;;;;;;;29.20;100722.00;;;;2073702;28;1634;-51
2021/08/16 01:23:26;;;;;;;;;;;;;29.20;100714.00;;;;2073238;28;1615;-53
2021/08/16 01:24:26;;;;;;;;;;;;;29.20;100720.00;;;;2064763;28;1530;-55
2021/08/16 01:25:26;;;;;;;;;;;;;29.20;100710.00;;;;2056704;28;1496;-55
2021/08/16 01:26:30;;;;;;;;;;;;;29.20;100714.00;;;;2064343;28;1774;-55
2021/08/16 01:27:30;;;;;;;;;;;;;29.20;100713.00;;;;2073841;28;1358;-55
2021/08/16 01:28:30;;;;;;;;;;;;;29.20;100715.00;;;;2073324;28;1386;-54
2021/08/16 01:29:31;;;;;;;;;;;;;29.20;100707.00;;;;2073597;28;1470;-52
2021/08/16 01:30:31;;;;;;;;;;;;;29.20;100710.00;;;;2064710;28;1682;-54
2021/08/16 01:31:31;;;;;;;;;;;;;29.20;100717.00;;;;2064928;28;1753;-54
2021/08/16 01:32:31;;;;;;;;;;;;;29.20;100714.00;;;;2073286;28;1523;-55
2021/08/16 01:33:31;;;;;;;;;;;;;29.20;100717.00;;;;2073336;28;1915;-53
2021/08/16 01:34:32;;;;;;;;;;;;;29.20;100715.00;;;;2073461;28;1507;-53
2021/08/16 01:35:32;;;;;;;;;;;;;29.20;100714.00;;;;2073682;28;1458;-53
2021/08/16 01:36:32;;;;;;;;;;;;;29.10;100701.00;;;;2073098;28;1964;-54
2021/08/16 01:37:32;;;;;;;;;;;;;29.10;100701.00;;;;2073552;28;1726;-55
2021/08/16 01:38:33;;;;;;;;;;;;;29.10;100706.00;;;;2073598;28;1738;-55
2021/08/16 01:39:34;;;;;;;;;;;;;29.10;100698.00;;;;2064837;28;1784;-55
2021/08/16 01:40:34;;;;;;;;;;;;;29.10;100700.00;;;;2064964;28;1820;-54
2021/08/16 01:41:34;;;;;;;;;;;;;29.10;100704.00;;;;2073625;28;1781;-54
2021/08/16 01:42:34;;;;;;;;;;;;;29.10;100690.00;;;;2073784;28;1596;-54
2021/08/16 01:43:34;;;;;;;;;;;;;29.10;100696.00;;;;2072796;28;1619;-55
2021/08/16 01:44:35;;;;;;;;;;;;;29.10;100704.00;;;;2073676;28;1691;-55
2021/08/16 01:45:35;;;;;;;;;;;;;29.10;100689.00;;;;2073514;28;1707;-54
2021/08/16 01:46:35;;;;;;;;;;;;;29.10;100681.00;;;;2073746;28;2038;-55
2021/08/16 01:47:35;;;;;;;;;;;;;29.10;100689.00;;;;2073595;28;2086;-54
2021/08/16 01:48:35;;;;;;;;;;;;;29.10;100674.00;;;;2064768;28;2419;-54
2021/08/16 01:49:36;;;;;;;;;;;;;29.10;100680.00;;;;2064415;28;1686;-54
2021/08/16 01:50:36;;;;;;;;;;;;;29.10;100678.00;;;;2073513;28;1635;-55
2021/08/16 01:51:36;;;;;;;;;;;;;29.10;100671.00;;;;2073584;28;1653;-54
2021/08/16 01:52:37;;;;;;;;;;;;;29.10;100679.00;;;;2073734;28;1461;-54
2021/08/16 01:53:37;;;;;;;;;;;;;29.10;100670.00;;;;2073137;28;1949;-55
2021/08/16 01:54:37;;;;;;;;;;;;;29.10;100666.00;;;;2064721;28;1576;-55
2021/08/16 01:55:37;;;;;;;;;;;;;29.10;100669.00;;;;2064785;28;1571;-54
2021/08/16 01:56:38;;;;;;;;;;;;;29.00;100661.00;;;;2071200;28;1906;-54
2021/08/16 01:57:38;;;;;;;;;;;;;29.00;100657.00;;;;2073547;28;1926;-54
2021/08/16 01:58:38;;;;;;;;;;;;;29.00;100655.00;;;;2065107;28;1927;-54
2021/08/16 01:59:38;;;;;;;;;;;;;29.00;100661.00;;;;2064520;28;1601;-53
2021/08/16 02:00:39;;;;;;;;;;;;;29.00;100653.00;;;;2072908;28;3421;-55
2021/08/16 02:01:39;;;;;;;;;;;;;29.00;100655.00;;;;2073471;28;1652;-55
2021/08/16 02:02:39;;;;;;;;;;;;;29.00;100657.00;;;;2073209;28;1657;-54
2021/08/16 02:03:39;;;;;;;;;;;;;29.00;100654.00;;;;2072992;28;1007;-54
2021/08/16 02:04:40;;;;;;;;;;;;;29.00;100656.00;;;;2072665;28;893;-54
2021/08/16 02:05:40;;;;;;;;;;;;;29.00;100656.00;;;;2072168;28;821;-54
2021/08/16 02:06:41;;;;;;;;;;;;;29.00;100649.00;;;;2073433;28;1185;-54
2021/08/16 02:07:41;;;;;;;;;;;;;29.00;100653.00;;;;2072154;28;1632;-54
2021/08/16 02:08:41;;;;;;;;;;;;;29.00;100651.00;;;;2073049;28;1612;-54
2021/08/16 02:09:41;;;;;;;;;;;;;29.00;100643.00;;;;2073366;28;1445;-55
2021/08/16 02:10:42;;;;;;;;;;;;;29.00;100642.00;;;;2073528;28;1796;-55
2021/08/16 02:11:42;;;;;;;;;;;;;29.00;100636.00;;;;2073435;28;1795;-55
2021/08/16 02:12:42;;;;;;;;;;;;;29.00;100636.00;;;;2073575;28;1312;-53
2021/08/16 02:13:42;;;;;;;;;;;;;29.00;100645.00;;;;2073068;28;1911;-54
2021/08/16 02:14:42;;;;;;;;;;;;;29.00;100635.00;;;;2073592;28;1724;-54
2021/08/16 02:15:43;;;;;;;;;;;;;29.00;100637.00;;;;2065141;28;1665;-55
2021/08/16 02:16:43;;;;;;;;;;;;;29.00;100639.00;;;;2063992;28;1889;-55
2021/08/16 02:17:43;;;;;;;;;;;;;28.90;100637.00;;;;2062578;28;1862;-53
2021/08/16 02:18:43;;;;;;;;;;;;;28.90;100631.00;;;;2056210;28;1655;-54
2021/08/16 02:19:46;;;;;;;;;;;;;29.00;100635.00;;;;2065973;28;1988;-53
2021/08/16 02:20:46;;;;;;;;;;;;;28.90;100640.00;;;;2074926;28;1970;-55
2021/08/16 02:21:46;;;;;;;;;;;;;28.90;100643.00;;;;2075170;28;2143;-55
2021/08/16 02:22:46;;;;;;;;;;;;;28.90;100642.00;;;;2074893;28;1543;-55
2021/08/16 02:23:46;;;;;;;;;;;;;28.90;100638.00;;;;2074525;28;861;-53
2021/08/16 02:24:47;;;;;;;;;;;;;28.90;100636.00;;;;2074521;28;893;-55
2021/08/16 02:25:47;;;;;;;;;;;;;28.90;100630.00;;;;2074719;28;892;-54
2021/08/16 02:26:47;;;;;;;;;;;;;28.90;100638.00;;;;2075202;28;991;-54
2021/08/16 02:27:48;;;;;;;;;;;;;28.90;100627.00;;;;2066645;28;896;-54
2021/08/16 02:28:48;;;;;;;;;;;;;28.90;100637.00;;;;2058399;28;1407;-53
2021/08/16 02:29:48;;;;;;;;;;;;;28.90;100633.00;;;;2065898;28;1235;-55
2021/08/16 02:30:48;;;;;;;;;;;;;28.90;100626.00;;;;2074080;28;2630;-56
2021/08/16 02:31:49;;;;;;;;;;;;;28.90;100630.00;;;;2075176;28;1135;-54
2021/08/16 02:32:49;;;;;;;;;;;;;28.90;100627.00;;;;2067749;28;1014;-53
2021/08/16 02:33:50;;;;;;;;;;;;;28.80;100627.00;;;;2074175;28;1149;-54
2021/08/16 02:34:50;;;;;;;;;;;;;28.90;100633.00;;;;2075201;28;888;-54
2021/08/16 02:35:50;;;;;;;;;;;;;28.80;100635.00;;;;2074930;28;682;-53
2021/08/16 02:36:50;;;;;;;;;;;;;28.80;100634.00;;;;2075121;28;1894;-55
2021/08/16 02:37:50;;;;;;;;;;;;;28.80;100636.00;;;;2075223;28;1073;-55
2021/08/16 02:38:51;;;;;;;;;;;;;28.80;100631.00;;;;2066550;28;1232;-53
2021/08/16 02:39:51;;;;;;;;;;;;;28.80;100631.00;;;;2066204;28;836;-54
2021/08/16 02:40:51;;;;;;;;;;;;;28.80;100624.00;;;;2075315;28;863;-54
2021/08/16 02:41:51;;;;;;;;;;;;;28.80;100630.00;;;;2074827;28;708;-53
2021/08/16 02:42:51;;;;;;;;;;;;;28.70;100626.00;;;;2075325;28;1070;-54
2021/08/16 02:43:52;;;;;;;;;;;;;28.70;100623.00;;;;2074718;28;889;-54
2021/08/16 02:44:52;;;;;;;;;;;;;28.70;100619.00;;;;2075359;28;833;-53
2021/08/16 02:45:52;;;;;;;;;;;;;28.70;100614.00;;;;2075057;28;704;-54
2021/08/16 02:46:52;;;;;;;;;;;;;28.70;100626.00;;;;2075264;28;984;-53
2021/08/16 02:47:52;;;;;;;;;;;;;28.60;100626.00;;;;2066042;28;770;-53
2021/08/16 02:48:53;;;;;;;;;;;;;28.60;100607.00;;;;2066498;28;1311;-55
2021/08/16 02:49:53;;;;;;;;;;;;;28.60;100613.00;;;;2066203;28;896;-53
2021/08/16 02:50:53;;;;;;;;;;;;;28.60;100617.00;;;;2075155;28;884;-54
2021/08/16 02:51:53;;;;;;;;;;;;;28.60;100619.00;;;;2075232;28;746;-53
2021/08/16 02:52:54;;;;;;;;;;;;;28.60;100616.00;;;;2075281;28;904;-54
2021/08/16 02:53:54;;;;;;;;;;;;;28.60;100615.00;;;;2074114;28;905;-54
2021/08/16 02:54:54;;;;;;;;;;;;;28.60;100615.00;;;;2066554;28;900;-54
2021/08/16 02:55:54;;;;;;;;;;;;;28.60;100618.00;;;;2066356;28;802;-53
2021/08/16 02:56:55;;;;;;;;;;;;;28.60;100614.00;;;;2066396;28;1906;-54
2021/08/16 02:57:55;;;;;;;;;;;;;28.60;100611.00;;;;2066335;28;861;-54
2021/08/16 02:58:55;;;;;;;;;;;;;28.60;100614.00;;;;2066223;28;1226;-54
2021/08/16 02:59:55;;;;;;;;;;;;;28.60;100615.00;;;;2072327;28;3404;-54
2021/08/16 03:00:55;;;;;;;;;;;;;28.60;100609.00;;;;2069230;28;1144;-53
2021/08/16 03:01:56;;;;;;;;;;;;;28.60;100619.00;;;;2074853;28;1193;-55
2021/08/16 03:02:56;;;;;;;;;;;;;28.60;100617.00;;;;2075073;28;1149;-53
2021/08/16 03:03:56;;;;;;;;;;;;;28.60;100617.00;;;;2074557;28;824;-54
2021/08/16 03:04:56;;;;;;;;;;;;;28.60;100611.00;;;;2074845;28;988;-55
2021/08/16 03:05:56;;;;;;;;;;;;;28.60;100620.00;;;;2074928;28;897;-54
2021/08/16 03:06:56;;;;;;;;;;;;;28.60;100615.00;;;;2074936;28;840;-54
2021/08/16 03:07:57;;;;;;;;;;;;;28.60;100611.00;;;;2075076;28;672;-53
2021/08/16 03:08:57;;;;;;;;;;;;;28.60;100606.00;;;;2072134;28;1294;-54
2021/08/16 03:09:57;;;;;;;;;;;;;28.60;100604.00;;;;2074960;28;887;-54
2021/08/16 03:10:58;;;;;;;;;;;;;28.60;100608.00;;;;2074728;28;753;-54
2021/08/16 03:11:58;;;;;;;;;;;;;28.60;100598.00;;;;2074810;28;805;-54
2021/08/16 03:12:59;;;;;;;;;;;;;28.60;100597.00;;;;2066048;28;829;-54
2021/08/16 03:13:59;;;;;;;;;;;;;28.60;100600.00;;;;2065676;28;869;-52
2021/08/16 03:14:59;;;;;;;;;;;;;28.60;100601.00;;;;2074656;28;853;-54
2021/08/16 03:16:00;;;;;;;;;;;;;28.60;100601.00;;;;2074746;28;1910;-53
2021/08/16 03:17:00;;;;;;;;;;;;;28.60;100595.00;;;;2074563;28;1082;-54
2021/08/16 03:18:00;;;;;;;;;;;;;28.60;100595.00;;;;2065900;28;794;-54
2021/08/16 03:19:00;;;;;;;;;;;;;28.60;100590.00;;;;2065791;28;1276;-54
2021/08/16 03:20:00;;;;;;;;;;;;;28.60;100586.00;;;;2074460;28;965;-55
2021/08/16 03:21:01;;;;;;;;;;;;;28.60;100597.00;;;;2074527;28;876;-54
2021/08/16 03:22:01;;;;;;;;;;;;;28.60;100601.00;;;;2077127;28;1130;-54
2021/08/16 03:23:01;;;;;;;;;;;;;28.50;100596.00;;;;2082577;28;884;-54
2021/08/16 03:24:01;;;;;;;;;;;;;28.50;100595.00;;;;2082291;28;900;-53
2021/08/16 03:25:02;;;;;;;;;;;;;28.50;100594.00;;;;2070546;28;1587;-54
2021/08/16 03:26:02;;;;;;;;;;;;;28.50;100602.00;;;;2065639;28;1424;-54
2021/08/16 03:27:02;;;;;;;;;;;;;28.50;100603.00;;;;2065482;28;1553;-54
2021/08/16 03:28:03;;;;;;;;;;;;;28.50;100594.00;;;;2065771;28;1438;-54
2021/08/16 03:29:03;;;;;;;;;;;;;28.50;100593.00;;;;2073331;28;1523;-54
2021/08/16 03:30:04;;;;;;;;;;;;;28.50;100592.00;;;;2073470;28;1505;-53
2021/08/16 03:31:04;;;;;;;;;;;;;28.40;100595.00;;;;2057447;28;1551;-53
2021/08/16 03:32:05;;;;;;;;;;;;;28.50;100583.00;;;;2057628;28;1402;-54
2021/08/16 03:33:05;;;;;;;;;;;;;28.50;100589.00;;;;2072115;28;1505;-54
2021/08/16 03:34:05;;;;;;;;;;;;;28.40;100589.00;;;;2073737;28;1478;-54
2021/08/16 03:35:05;;;;;;;;;;;;;28.40;100586.00;;;;2074476;28;1519;-55
2021/08/16 03:36:06;;;;;;;;;;;;;28.40;100586.00;;;;2073772;28;1923;-54
2021/08/16 03:37:06;;;;;;;;;;;;;28.30;100579.00;;;;2074307;28;1643;-53
2021/08/16 03:38:06;;;;;;;;;;;;;28.30;100579.00;;;;2074521;28;892;-54
2021/08/16 03:39:06;;;;;;;;;;;;;28.30;100576.00;;;;2074659;28;1205;-54
2021/08/16 03:40:07;;;;;;;;;;;;;28.30;100581.00;;;;2073678;28;970;-53
2021/08/16 03:41:07;;;;;;;;;;;;;28.30;100572.00;;;;2074119;28;852;-54
2021/08/16 03:42:07;;;;;;;;;;;;;28.30;100579.00;;;;2074127;28;900;-54
2021/08/16 03:43:09;;;;;;;;;;;;;28.30;100570.00;;;;2074626;28;931;-54
2021/08/16 03:44:09;;;;;;;;;;;;;28.30;100570.00;;;;2073937;28;801;-54
2021/08/16 03:45:13;;;;;;;;;;;;;28.30;100561.00;;;;2074600;28;979;-54
2021/08/16 03:46:13;;;;;;;;;;;;;28.30;100570.00;;;;2074244;28;1445;-54
2021/08/16 03:47:13;;;;;;;;;;;;;28.30;100566.00;;;;2074042;28;1605;-54
2021/08/16 03:48:13;;;;;;;;;;;;;28.30;100574.00;;;;2072659;28;1502;-53
2021/08/16 03:49:14;;;;;;;;;;;;;28.20;100572.00;;;;2072795;28;1428;-54
2021/08/16 03:50:14;;;;;;;;;;;;;28.20;100580.00;;;;2073014;28;1667;-54
2021/08/16 03:51:14;;;;;;;;;;;;;28.20;100571.00;;;;2074420;28;1466;-54
2021/08/16 03:52:14;;;;;;;;;;;;;28.10;100571.00;;;;2073455;28;1507;-53
2021/08/16 03:53:14;;;;;;;;;;;;;28.20;100574.00;;;;2073815;28;1557;-54
2021/08/16 03:54:15;;;;;;;;;;;;;28.10;100567.00;;;;2073162;28;1538;-54
2021/08/16 03:55:15;;;;;;;;;;;;;28.10;100568.00;;;;2074170;28;1539;-54
2021/08/16 03:56:15;;;;;;;;;;;;;28.10;100570.00;;;;2074197;28;1973;-54
2021/08/16 03:57:15;;;;;;;;;;;;;28.10;100574.00;;;;2074334;28;1654;-54
2021/08/16 03:58:15;;;;;;;;;;;;;28.10;100563.00;;;;2074359;28;1596;-53
2021/08/16 03:59:16;;;;;;;;;;;;;28.10;100570.00;;;;2074237;28;1286;-53
2021/08/16 04:00:16;;;;;;;;;;;;;28.00;100557.00;;;;2073121;28;2933;-54
2021/08/16 04:01:16;;;;;;;;;;;;;27.90;100565.00;;;;2074302;28;1512;-54
2021/08/16 04:02:16;;;;;;;;;;;;;27.90;100566.00;;;;2073993;28;1354;-54
2021/08/16 04:03:17;;;;;;;;;;;;;27.90;100567.00;;;;2074109;28;1421;-53
2021/08/16 04:04:17;;;;;;;;;;;;;27.90;100570.00;;;;2073705;28;1421;-52
2021/08/16 04:05:17;;;;;;;;;;;;;27.90;100561.00;;;;2074007;28;1521;-53
2021/08/16 04:06:18;;;;;;;;;;;;;27.90;100569.00;;;;2074059;28;1892;-55
2021/08/16 04:07:18;;;;;;;;;;;;;27.90;100566.00;;;;2074095;28;1530;-55
2021/08/16 04:08:18;;;;;;;;;;;;;28.00;100565.00;;;;2074201;28;1479;-54
2021/08/16 04:09:18;;;;;;;;;;;;;28.00;100571.00;;;;2074007;28;1491;-54
2021/08/16 04:10:19;;;;;;;;;;;;;28.00;100563.00;;;;2074223;28;1978;-53
2021/08/16 04:11:20;;;;;;;;;;;;;28.10;100564.00;;;;2073614;28;1641;-54
2021/08/16 04:12:20;;;;;;;;;;;;;28.00;100559.00;;;;2073521;28;1396;-53
2021/08/16 04:13:20;;;;;;;;;;;;;28.00;100550.00;;;;2073450;28;1737;-54
2021/08/16 04:14:20;;;;;;;;;;;;;28.00;100553.00;;;;2073670;28;1524;-54
2021/08/16 04:15:23;;;;;;;;;;;;;28.00;100546.00;;;;2074176;28;1490;-53
2021/08/16 04:16:23;;;;;;;;;;;;;27.90;100554.00;;;;2074142;28;1967;-53
2021/08/16 04:17:24;;;;;;;;;;;;;27.90;100555.00;;;;2073430;28;1546;-54
2021/08/16 04:18:24;;;;;;;;;;;;;27.70;100545.00;;;;2074203;28;1627;-54
2021/08/16 04:19:24;;;;;;;;;;;;;27.80;100550.00;;;;2073897;28;1456;-54
2021/08/16 04:20:24;;;;;;;;;;;;;27.60;100550.00;;;;2073781;28;1908;-54
2021/08/16 04:21:24;;;;;;;;;;;;;27.70;100551.00;;;;2073979;28;1518;-53
2021/08/16 04:22:24;;;;;;;;;;;;;27.80;100546.00;;;;2074010;28;1407;-54
2021/08/16 04:23:25;;;;;;;;;;;;;27.80;100545.00;;;;2073763;28;1483;-54
2021/08/16 04:24:25;;;;;;;;;;;;;27.70;100543.00;;;;2073622;28;1407;-53
2021/08/16 04:25:25;;;;;;;;;;;;;27.70;100547.00;;;;2074036;28;1407;-53
2021/08/16 04:26:25;;;;;;;;;;;;;27.60;100545.00;;;;2065506;28;1845;-53
2021/08/16 04:27:26;;;;;;;;;;;;;27.70;100546.00;;;;2065267;28;1492;-53
2021/08/16 04:28:26;;;;;;;;;;;;;27.80;100538.00;;;;2064979;28;1587;-53
2021/08/16 04:29:26;;;;;;;;;;;;;27.80;100543.00;;;;2065224;28;1827;-55
2021/08/16 04:30:26;;;;;;;;;;;;;27.90;100547.00;;;;2073815;28;1322;-54
2021/08/16 04:31:27;;;;;;;;;;;;;27.90;100545.00;;;;2065241;28;1409;-54
2021/08/16 04:32:27;;;;;;;;;;;;;27.90;100550.00;;;;2065293;28;1893;-53
2021/08/16 04:33:27;;;;;;;;;;;;;28.00;100545.00;;;;2074134;28;864;-54
2021/08/16 04:34:27;;;;;;;;;;;;;27.90;100545.00;;;;2064868;28;908;-54
2021/08/16 04:35:27;;;;;;;;;;;;;28.00;100548.00;;;;2065740;28;684;-53
2021/08/16 04:36:28;;;;;;;;;;;;;28.00;100551.00;;;;2065267;28;1967;-53
2021/08/16 04:37:28;;;;;;;;;;;;;28.00;100545.00;;;;2065080;28;1588;-54
2021/08/16 04:38:28;;;;;;;;;;;;;28.00;100560.00;;;;2074039;28;1418;-53
2021/08/16 04:39:28;;;;;;;;;;;;;28.00;100555.00;;;;2065106;28;1955;-53
2021/08/16 04:40:28;;;;;;;;;;;;;28.00;100555.00;;;;2065044;28;1631;-55
2021/08/16 04:41:29;;;;;;;;;;;;;28.00;100561.00;;;;2073708;28;1468;-55
2021/08/16 04:42:29;;;;;;;;;;;;;28.00;100552.00;;;;2073582;28;1469;-55
2021/08/16 04:43:29;;;;;;;;;;;;;28.00;100560.00;;;;2074020;28;1385;-53
2021/08/16 04:44:29;;;;;;;;;;;;;28.00;100560.00;;;;2073502;28;1381;-53
2021/08/16 04:45:29;;;;;;;;;;;;;28.00;100559.00;;;;2073843;28;1985;-53
2021/08/16 04:46:29;;;;;;;;;;;;;28.00;100563.00;;;;2073747;28;1427;-53
2021/08/16 04:47:30;;;;;;;;;;;;;28.00;100570.00;;;;2074364;28;885;-53
2021/08/16 04:48:30;;;;;;;;;;;;;28.10;100564.00;;;;2074169;28;874;-54
2021/08/16 04:49:30;;;;;;;;;;;;;28.10;100572.00;;;;2074047;28;1295;-53
2021/08/16 04:50:30;;;;;;;;;;;;;28.10;100574.00;;;;2074055;28;805;-53
2021/08/16 04:51:30;;;;;;;;;;;;;28.10;100574.00;;;;2073952;28;636;-54
2021/08/16 04:52:31;;;;;;;;;;;;;28.10;100578.00;;;;2074191;28;939;-54
2021/08/16 04:53:31;;;;;;;;;;;;;28.10;100583.00;;;;2074004;28;940;-55
2021/08/16 04:54:31;;;;;;;;;;;;;28.10;100580.00;;;;2073798;28;1599;-54
2021/08/16 04:55:31;;;;;;;;;;;;;28.10;100583.00;;;;2073950;28;1665;-54
2021/08/16 04:56:31;;;;;;;;;;;;;28.10;100578.00;;;;2073442;28;1902;-53
2021/08/16 04:57:36;;;;;;;;;;;;;28.00;100578.00;;;;2073967;28;1654;-54
2021/08/16 04:58:36;;;;;;;;;;;;;28.10;100587.00;;;;2073766;28;1909;-54
2021/08/16 04:59:36;;;;;;;;;;;;;28.10;100572.00;;;;2073659;28;1528;-54
2021/08/16 05:00:36;;;;;;;;;;;;;28.10;100575.00;;;;2073068;28;1822;-54
2021/08/16 05:01:37;;;;;;;;;;;;;28.10;100578.00;;;;2073003;28;1851;-54
2021/08/16 05:02:37;;;;;;;;;;;;;28.10;100578.00;;;;2064805;28;1593;-55
2021/08/16 05:03:38;;;;;;;;;;;;;28.10;100576.00;;;;2056417;28;1636;-54
2021/08/16 05:04:38;;;;;;;;;;;;;28.10;100590.00;;;;2065143;28;2090;-54
2021/08/16 05:05:45;;;;;;;;;;;;;28.10;100580.00;;;;2073456;28;1901;-53
2021/08/16 05:06:46;;;;;;;;;;;;;28.10;100586.00;;;;2064647;28;1834;-54
2021/08/16 05:07:47;;;;;;;;;;;;;28.00;100583.00;;;;2065031;28;1383;-54
2021/08/16 05:08:48;;;;;;;;;;;;;28.10;100575.00;;;;2064083;28;2127;-53
2021/08/16 05:09:51;;;;;;;;;;;;;28.10;100588.00;;;;2064179;28;2354;-55
2021/08/16 05:10:52;;;;;;;;;;;;;28.10;100596.00;;;;2071532;28;1461;-53
2021/08/16 05:11:52;;;;;;;;;;;;;28.10;100583.00;;;;2073299;28;1490;-54
2021/08/16 05:12:53;;;;;;;;;;;;;28.10;100581.00;;;;2073750;28;1339;-53
2021/08/16 05:13:53;;;;;;;;;;;;;28.10;100588.00;;;;2064061;28;1301;-55
2021/08/16 05:14:54;;;;;;;;;;;;;28.10;100592.00;;;;2065144;28;1386;-54
2021/08/16 05:15:55;;;;;;;;;;;;;28.10;100590.00;;;;2073541;28;1702;-53
2021/08/16 05:16:55;;;;;;;;;;;;;28.10;100580.00;;;;2073748;28;2026;-54
2021/08/16 05:17:55;;;;;;;;;;;;;28.10;100586.00;;;;2073515;28;1529;-54
2021/08/16 05:18:55;;;;;;;;;;;;;28.00;100576.00;;;;2073721;28;1614;-53
2021/08/16 05:19:55;;;;;;;;;;;;;28.00;100572.00;;;;2064231;28;1643;-53
2021/08/16 05:20:56;;;;;;;;;;;;;28.10;100578.00;;;;2065258;28;2023;-53
2021/08/16 05:21:56;;;;;;;;;;;;;28.10;100581.00;;;;2073548;28;1724;-55
2021/08/16 05:22:56;;;;;;;;;;;;;28.10;100580.00;;;;2073907;28;1424;-55
2021/08/16 05:23:56;;;;;;;;;;;;;28.20;100589.00;;;;2073381;28;1436;-53
2021/08/16 05:24:57;;;;;;;;;;;;;28.10;100590.00;;;;2073544;28;1736;-53
2021/08/16 05:25:57;;;;;;;;;;;;;28.10;100596.00;;;;2073235;28;1648;-54
2021/08/16 05:26:57;;;;;;;;;;;;;28.10;100591.00;;;;2064944;28;1957;-54
2021/08/16 05:27:57;;;;;;;;;;;;;28.10;100588.00;;;;2064733;28;1691;-53
2021/08/16 05:28:59;;;;;;;;;;;;;28.10;100595.00;;;;2065146;28;1636;-54
2021/08/16 05:29:59;;;;;;;;;;;;;28.10;100597.00;;;;2064885;28;1798;-53
2021/08/16 05:30:59;;;;;;;;;;;;;27.90;100597.00;;;;2073474;28;1894;-54
2021/08/16 05:31:59;;;;;;;;;;;;;28.00;100594.00;;;;2073312;28;1494;-54
2021/08/16 05:33:00;;;;;;;;;;;;;28.00;100596.00;;;;2073357;28;1811;-54
2021/08/16 05:34:00;;;;;;;;;;;;;28.00;100589.00;;;;2072922;28;1612;-53
2021/08/16 05:35:00;;;;;;;;;;;;;28.00;100589.00;;;;2073879;28;1931;-55
2021/08/16 05:36:00;;;;;;;;;;;;;28.10;100593.00;;;;2073093;28;1845;-55
2021/08/16 05:37:00;;;;;;;;;;;;;28.10;100590.00;;;;2072318;28;1910;-54